Autumn — V7QA6 — position and weather

sailwx.info

Track history (hours):
 
Tides and Currents Weather Stations Pressure Air Temp Water Temp Dewpoint Dewpoint Depression Visibility Wind Speed Wind Dir Waves Ship Positions

Autumn

Last reported at 2017-Apr-28 13:26 UTC. Time now 2017-Apr-29 15:36 UTC.
Position N 56°02' W 003°42'.

Length 129 m; draft 8.6 m.

Type: Tanker. MMSI: 538003323.

Date/timePositionNaut miles runAvg speedWind from/ knotsBaromVisibWave heightAir tempDewpointWater temp
2017-Apr-28 13:26N 56°02' W 003°42'0 0.0
2017-Apr-27 02:14N 56°02' W 003°41'8 4.3
2017-Apr-27 00:27N 56°01' W 003°28'4 8.1
2017-Apr-27 00:00N 56°01' W 003°21'611.7
2017-Apr-26 23:30N 56°03' W 003°11'3 5.8
2017-Apr-26 23:00N 56°04' W 003°07'1 1.1
2017-Apr-26 22:29N 56°05' W 003°07'0 0.0
2017-Apr-26 21:59N 56°05' W 003°07'0 0.2
2017-Apr-26 21:29N 56°05' W 003°07'0 0.2
2017-Apr-26 20:59N 56°05' W 003°07'0 0.0
2017-Apr-26 20:29N 56°05' W 003°07'0 0.0
2017-Apr-26 19:59N 56°05' W 003°07'0 0.0
2017-Apr-26 19:29N 56°05' W 003°07'0 0.0
2017-Apr-26 18:59N 56°05' W 003°07'0 0.0
2017-Apr-26 18:29N 56°05' W 003°07'0 0.0
2017-Apr-26 17:59N 56°05' W 003°07'0 0.0
2017-Apr-26 17:29N 56°05' W 003°07'0 0.0
2017-Apr-26 16:59N 56°05' W 003°07'0 0.6
2017-Apr-26 16:31N 56°05' W 003°06'3 6.1
2017-Apr-26 16:00N 56°05' W 003°01'510.4
2017-Apr-26 15:30N 56°06' W 002°52'510.6
2017-Apr-26 15:00N 56°06' W 002°42'611.4
2017-Apr-26 14:31N 56°05' W 002°32'1111.2
2017-Apr-26 13:30N 56°02' W 002°13'510.8
2017-Apr-26 13:01N 56°01' W 002°03'510.2
2017-Apr-26 12:31N 55°57' W 001°56'510.0
2017-Apr-26 12:01N 55°54' W 001°50'5 9.9
2017-Apr-26 11:30N 55°51' W 001°43'510.2
2017-Apr-26 11:00N 55°47' W 001°37'510.4
2017-Apr-26 10:28N 55°43' W 001°30'510.7
2017-Apr-26 10:00N 55°40' W 001°23'510.9
2017-Apr-26 09:30N 55°36' W 001°16'510.9
2017-Apr-26 09:00N 55°32' W 001°09'510.7
2017-Apr-26 08:30N 55°29' W 001°02'510.6
2017-Apr-26 08:00N 55°25' W 000°55'252 9.0
2017-Apr-25 04:04N 52°08' E 003°33'210.5
2017-Apr-25 03:55N 52°08' E 003°35'410.6
2017-Apr-25 03:30N 52°05' E 003°41'510.6
2017-Apr-25 03:00N 52°03' E 003°49'4 8.4
2017-Apr-25 02:31N 52°03' E 003°56'5 9.3
2017-Apr-25 02:01N 51°60' E 004°02'510.2
2017-Apr-25 01:31N 51°57' E 004°09'2 3.9
2017-Apr-25 00:55N 51°56' E 004°12'0 0.0
2017-Apr-25 00:28N 51°56' E 004°12'0 0.0
2017-Apr-24 23:58N 51°56' E 004°12'0 0.0
2017-Apr-24 23:25N 51°56' E 004°12'0 0.0
2017-Apr-24 22:58N 51°56' E 004°12'0 0.0
2017-Apr-24 22:28N 51°56' E 004°12'0 0.0
2017-Apr-24 21:58N 51°56' E 004°12'0 0.0
2017-Apr-24 21:28N 51°56' E 004°12'0 0.0
2017-Apr-24 20:55N 51°56' E 004°12'0 0.0
2017-Apr-24 20:28N 51°56' E 004°12'0 0.0
2017-Apr-24 19:55N 51°56' E 004°12'0 0.0
2017-Apr-24 19:28N 51°56' E 004°12'0 0.1
2017-Apr-24 18:58N 51°56' E 004°12'0 0.1
2017-Apr-24 18:25N 51°56' E 004°12'0 0.0
2017-Apr-24 17:55N 51°56' E 004°12'0 0.0
2017-Apr-24 17:28N 51°56' E 004°12'0 0.1
2017-Apr-24 16:58N 51°56' E 004°12'0 0.1
2017-Apr-24 16:28N 51°56' E 004°12'0 0.0
2017-Apr-24 15:58N 51°56' E 004°12'0 0.0
2017-Apr-24 15:28N 51°56' E 004°12'0 0.0
2017-Apr-24 14:58N 51°56' E 004°12'0 0.0
2017-Apr-24 14:25N 51°56' E 004°12'0 0.0
2017-Apr-24 13:25N 51°56' E 004°12'0 0.0
2017-Apr-24 12:58N 51°56' E 004°12'0 0.0
2017-Apr-24 12:28N 51°56' E 004°12'0 0.0
2017-Apr-24 11:58N 51°56' E 004°12'0 0.0
2017-Apr-24 11:25N 51°56' E 004°12'0 0.0
2017-Apr-24 10:58N 51°56' E 004°12'0 0.1
2017-Apr-24 10:28N 51°56' E 004°12'0 0.1
2017-Apr-24 09:52N 51°56' E 004°12'0 0.0
2017-Apr-24 09:28N 51°56' E 004°12'0 0.0
2017-Apr-24 08:58N 51°56' E 004°12'0 0.0
2017-Apr-24 08:28N 51°56' E 004°12'0 0.0
2017-Apr-24 07:58N 51°56' E 004°12'0 0.0
2017-Apr-24 07:28N 51°56' E 004°12'0 0.0
2017-Apr-24 06:58N 51°56' E 004°12'0 0.0
2017-Apr-24 06:22N 51°56' E 004°12'0 0.0
2017-Apr-24 05:58N 51°56' E 004°12'0 0.0
2017-Apr-24 05:28N 51°56' E 004°12'0 0.0
2017-Apr-24 04:55N 51°56' E 004°12'0 0.0
2017-Apr-24 04:28N 51°56' E 004°12'0 0.0
2017-Apr-24 03:58N 51°56' E 004°12'0 0.0
2017-Apr-24 03:28N 51°56' E 004°12'0 0.0
2017-Apr-24 02:58N 51°56' E 004°12'0 0.0
2017-Apr-24 02:28N 51°56' E 004°12'0 0.0
2017-Apr-24 01:58N 51°56' E 004°12'0 0.0
2017-Apr-24 01:28N 51°56' E 004°12'0 0.1
2017-Apr-24 01:00N 51°56' E 004°12'2 4.8
2017-Apr-24 00:31N 51°57' E 004°09'510.3
2017-Apr-24 00:01N 51°60' E 004°01'612.6
2017-Apr-23 23:30N 51°60' E 003°51'611.0
2017-Apr-23 23:00N 51°59' E 003°42'612.4
2017-Apr-23 22:30N 51°56' E 003°34'0 0.6
2017-Apr-23 21:44N 51°55' E 003°34'0 0.1
2017-Apr-23 20:50N 51°55' E 003°34'0 0.0
2017-Apr-23 20:23N 51°55' E 003°34'0 0.0
2017-Apr-23 19:59N 51°55' E 003°34'0 0.0
2017-Apr-23 18:23N 51°55' E 003°34'0 0.0
2017-Apr-23 16:53N 51°55' E 003°34'0 0.0
2017-Apr-23 16:29N 51°55' E 003°34'0 0.1
2017-Apr-23 15:35N 51°55' E 003°34'0 0.1
2017-Apr-23 14:14N 51°55' E 003°34'4712.3
2017-Apr-23 10:25N 51°37' E 002°25'613.6
2017-Apr-23 10:00N 51°32' E 002°19'713.3
2017-Apr-23 09:30N 51°27' E 002°13'713.4
2017-Apr-23 09:00N 51°20' E 002°09'713.4
2017-Apr-23 08:30N 51°15' E 002°04'713.3
2017-Apr-23 08:00N 51°11' E 001°56'713.1
2017-Apr-23 07:30N 51°07' E 001°47'613.0
2017-Apr-23 07:00N 51°02' E 001°40'612.5
2017-Apr-23 06:30N 50°58' E 001°33'611.8
2017-Apr-23 06:00N 50°53' E 001°28'611.6
2017-Apr-23 05:28N 50°47' E 001°24'4811.2
2017-Apr-23 01:13N 50°23' E 000°20'311.3
2017-Apr-23 00:55N 50°22' E 000°15'511.4
2017-Apr-23 00:30N 50°21' E 000°08'611.4
2017-Apr-23 00:00N 50°19' W 000°01'611.3
2017-Apr-22 23:30N 50°18' W 000°09'611.3
2017-Apr-22 23:00N 50°16' W 000°18'911.3
2017-Apr-22 22:11N 50°14' W 000°32'211.4
2017-Apr-22 22:00N 50°13' W 000°35'811.5
2017-Apr-22 21:18N 50°11' W 000°47'811.9
2017-Apr-22 20:37N 50°09' W 000°59'112.2
2017-Apr-22 20:30N 50°08' W 001°01'1412.9
2017-Apr-22 19:25N 50°04' W 001°22'713.9
2017-Apr-22 18:55N 50°02' W 001°33'3614.9
2017-Apr-22 16:30N 49°53' W 002°27'714.4
2017-Apr-22 16:00N 49°51' W 002°37'814.0
2017-Apr-22 15:28N 49°49' W 002°49'613.7
2017-Apr-22 15:00N 49°46' W 002°58'713.6
2017-Apr-22 14:30N 49°43' W 003°07'1413.4
2017-Apr-22 13:29N 49°36' W 003°25'4612.8
2017-Apr-22 09:53N 49°13' W 004°27'712.1
2017-Apr-22 09:18N 49°10' W 004°36'1311.8
2017-Apr-22 08:14N 49°03' W 004°53'711.6
2017-Apr-22 07:36N 48°60' W 005°02'111.6
2017-Apr-22 07:29N 48°59' W 005°04'611.6
2017-Apr-22 07:00N 48°56' W 005°11'611.5
2017-Apr-22 06:30N 48°53' W 005°19'611.4
2017-Apr-22 06:00N 48°50' W 005°26'611.5
2017-Apr-22 05:30N 48°48' W 005°34'611.1
2017-Apr-22 04:59N 48°43' W 005°39'611.6
2017-Apr-22 04:30N 48°38' W 005°42'510.2
2017-Apr-22 04:00N 48°33' W 005°41'712.3
2017-Apr-22 03:28N 48°28' W 005°34'612.2
2017-Apr-22 02:59N 48°24' W 005°28'612.3
2017-Apr-22 02:30N 48°19' W 005°22'612.4
2017-Apr-22 02:00N 48°15' W 005°15'612.7
2017-Apr-22 01:30N 48°14' W 005°06'612.7
2017-Apr-22 01:00N 48°14' W 004°57'612.8
2017-Apr-22 00:30N 48°16' W 004°48'612.9
2017-Apr-22 00:00N 48°19' W 004°39'510.9
2017-Apr-21 23:30N 48°21' W 004°31'4 6.9
2017-Apr-21 23:00N 48°23' W 004°27'0 0.0
2017-Apr-21 22:30N 48°23' W 004°27'0 0.0
2017-Apr-21 22:00N 48°23' W 004°27'0 0.0
2017-Apr-21 21:30N 48°23' W 004°27'0 0.0
2017-Apr-21 21:00N 48°23' W 004°27'0 0.0
2017-Apr-21 20:30N 48°23' W 004°27'0 0.0
2017-Apr-21 20:00N 48°23' W 004°27'0 0.0
2017-Apr-21 19:30N 48°23' W 004°27'0 0.0
2017-Apr-21 19:00N 48°23' W 004°27'0 0.0
2017-Apr-21 18:30N 48°23' W 004°27'0 0.0
2017-Apr-21 18:00N 48°23' W 004°27'0 0.0
2017-Apr-21 17:30N 48°23' W 004°27'0 0.0
2017-Apr-21 17:00N 48°23' W 004°27'0 0.0
2017-Apr-21 16:30N 48°23' W 004°27'0 0.0
2017-Apr-21 16:00N 48°23' W 004°27'0 0.0
2017-Apr-21 15:30N 48°23' W 004°27'0 0.0
2017-Apr-21 15:00N 48°23' W 004°27'0 0.0
2017-Apr-21 14:30N 48°23' W 004°27'0 0.0
2017-Apr-21 13:30N 48°23' W 004°27'0 0.0
2017-Apr-21 13:00N 48°23' W 004°27'0 0.0
2017-Apr-21 12:30N 48°23' W 004°27'0 0.0
2017-Apr-21 12:00N 48°23' W 004°27'0 0.0
2017-Apr-21 11:30N 48°23' W 004°27'0 0.0
2017-Apr-21 11:00N 48°23' W 004°27'0 0.0
2017-Apr-21 10:30N 48°23' W 004°27'0 0.0
2017-Apr-21 10:00N 48°23' W 004°27'0 0.0
2017-Apr-21 09:30N 48°23' W 004°27'1 1.7
2017-Apr-21 09:00N 48°22' W 004°28'5 9.7
2017-Apr-21 08:30N 48°21' W 004°35'510.8
2017-Apr-21 08:01N 48°18' W 004°42'611.0
2017-Apr-21 07:30N 48°16' W 004°49'5 9.2
2017-Apr-21 07:01N 48°14' W 004°56'0 0.4
2017-Apr-21 06:31N 48°14' W 004°56'1 2.8
2017-Apr-21 06:00N 48°15' W 004°54'0 0.7
2017-Apr-21 05:30N 48°15' W 004°54'0 0.2
2017-Apr-21 05:01N 48°15' W 004°54'3 6.0
2017-Apr-21 04:31N 48°14' W 004°58'510.8
2017-Apr-21 04:00N 48°13' W 005°06'611.0
2017-Apr-21 03:30N 48°13' W 005°14'510.6
2017-Apr-21 03:01N 48°14' W 005°22'611.2
2017-Apr-21 02:29N 48°18' W 005°28'37 9.2
2017-Apr-20 22:27N 48°53' W 005°47'10111.9
2017-Apr-20 13:56N 49°44' W 003°32'511.7
2017-Apr-20 13:30N 49°46' W 003°25'611.6
2017-Apr-20 13:01N 49°49' W 003°17'711.6
2017-Apr-20 12:25N 49°53' W 003°09'511.7
2017-Apr-20 12:01N 49°55' W 003°02'611.8
2017-Apr-20 11:30N 49°58' W 002°54'612.2
2017-Apr-20 11:00N 49°60' W 002°45'6713.1
2017-Apr-20 05:52N 49°45' W 001°03'513.4
2017-Apr-20 05:30N 49°43' W 000°56'713.0
2017-Apr-20 05:00N 49°41' W 000°46'612.2
2017-Apr-20 04:30N 49°38' W 000°38'612.2
2017-Apr-20 04:00N 49°36' W 000°29'611.7
2017-Apr-20 03:30N 49°34' W 000°21'611.8
2017-Apr-20 03:00N 49°31' W 000°13'612.2
2017-Apr-20 02:30N 49°29' W 000°04'611.6
2017-Apr-20 02:00N 49°26' E 000°04'510.9
2017-Apr-20 01:30N 49°26' E 000°12'4 8.5
2017-Apr-20 01:00N 49°26' E 000°19'4 8.6
2017-Apr-20 00:30N 49°27' E 000°25'4 8.8
2017-Apr-20 00:00N 49°29' E 000°31'5 9.6
2017-Apr-19 23:30N 49°26' E 000°38'7 9.3
2017-Apr-19 22:44N 49°31' E 000°46'311.0
2017-Apr-19 22:30N 49°29' E 000°48'510.6
2017-Apr-19 22:00N 49°24' E 000°51'3 0.2
2017-Apr-19 01:40N 49°26' E 000°48'210.8
2017-Apr-19 01:30N 49°28' E 000°49'6 6.4
2017-Apr-19 00:36N 49°29' E 000°40'112.8
2017-Apr-19 00:30N 49°27' E 000°40'5 9.5
2017-Apr-19 00:00N 49°28' E 000°33'5 9.3
2017-Apr-18 23:30N 49°27' E 000°25'612.5
2017-Apr-18 23:00N 49°26' E 000°16'510.8
2017-Apr-18 22:30N 49°26' E 000°08'510.4
2017-Apr-18 22:00N 49°28' E 000°00'4 8.5
2017-Apr-18 21:30N 49°29' W 000°06'4 8.7
2017-Apr-18 21:00N 49°30' W 000°12'510.2
2017-Apr-18 20:31N 49°32' W 000°19'510.8
2017-Apr-18 20:00N 49°36' W 000°26'611.4
2017-Apr-18 19:31N 49°41' W 000°29'611.4
2017-Apr-18 19:00N 49°46' W 000°33'612.6
2017-Apr-18 18:30N 49°52' W 000°29'612.8
2017-Apr-18 18:00N 49°58' W 000°25'713.0
2017-Apr-18 17:30N 50°04' W 000°21'712.9
2017-Apr-18 16:59N 50°10' W 000°16'612.8
2017-Apr-18 16:30N 50°15' W 000°12'612.6
2017-Apr-18 16:00N 50°21' W 000°07'612.5
2017-Apr-18 15:30N 50°27' W 000°03'612.0
2017-Apr-18 15:00N 50°29' E 000°05'612.1
2017-Apr-18 14:31N 50°31' E 000°14'1211.8
2017-Apr-18 13:30N 50°34' E 000°32'  
Track history (hours):
 
Tides and Currents Weather Stations Pressure Air Temp Water Temp Dewpoint Dewpoint Depression Visibility Wind Speed Wind Dir Waves Ship Positions

Autumn

Last reported at 2017-Apr-28 13:26 UTC. Time now 2017-Apr-29 15:36 UTC.
Position N 56°02' W 003°42'.

Length 129 m; draft 8.6 m.

Type: Tanker. MMSI: 538003323.

Date/timePositionNaut miles runAvg speedWind from/ knotsBaromVisibWave heightAir tempDewpointWater temp
2017-Apr-28 13:26N 56°02' W 003°42'0 0.0
2017-Apr-27 02:14N 56°02' W 003°41'8 4.3
2017-Apr-27 00:27N 56°01' W 003°28'4 8.1
2017-Apr-27 00:00N 56°01' W 003°21'611.7
2017-Apr-26 23:30N 56°03' W 003°11'3 5.8
2017-Apr-26 23:00N 56°04' W 003°07'1 1.1
2017-Apr-26 22:29N 56°05' W 003°07'0 0.0
2017-Apr-26 21:59N 56°05' W 003°07'0 0.2
2017-Apr-26 21:29N 56°05' W 003°07'0 0.2
2017-Apr-26 20:59N 56°05' W 003°07'0 0.0
2017-Apr-26 20:29N 56°05' W 003°07'0 0.0
2017-Apr-26 19:59N 56°05' W 003°07'0 0.0
2017-Apr-26 19:29N 56°05' W 003°07'0 0.0
2017-Apr-26 18:59N 56°05' W 003°07'0 0.0
2017-Apr-26 18:29N 56°05' W 003°07'0 0.0
2017-Apr-26 17:59N 56°05' W 003°07'0 0.0
2017-Apr-26 17:29N 56°05' W 003°07'0 0.0
2017-Apr-26 16:59N 56°05' W 003°07'0 0.6
2017-Apr-26 16:31N 56°05' W 003°06'3 6.1
2017-Apr-26 16:00N 56°05' W 003°01'510.4
2017-Apr-26 15:30N 56°06' W 002°52'510.6
2017-Apr-26 15:00N 56°06' W 002°42'611.4
2017-Apr-26 14:31N 56°05' W 002°32'1111.2
2017-Apr-26 13:30N 56°02' W 002°13'510.8
2017-Apr-26 13:01N 56°01' W 002°03'510.2
2017-Apr-26 12:31N 55°57' W 001°56'510.0
2017-Apr-26 12:01N 55°54' W 001°50'5 9.9
2017-Apr-26 11:30N 55°51' W 001°43'510.2
2017-Apr-26 11:00N 55°47' W 001°37'510.4
2017-Apr-26 10:28N 55°43' W 001°30'510.7
2017-Apr-26 10:00N 55°40' W 001°23'510.9
2017-Apr-26 09:30N 55°36' W 001°16'510.9
2017-Apr-26 09:00N 55°32' W 001°09'510.7
2017-Apr-26 08:30N 55°29' W 001°02'510.6
2017-Apr-26 08:00N 55°25' W 000°55'252 9.0
2017-Apr-25 04:04N 52°08' E 003°33'210.5
2017-Apr-25 03:55N 52°08' E 003°35'410.6
2017-Apr-25 03:30N 52°05' E 003°41'510.6
2017-Apr-25 03:00N 52°03' E 003°49'4 8.4
2017-Apr-25 02:31N 52°03' E 003°56'5 9.3
2017-Apr-25 02:01N 51°60' E 004°02'510.2
2017-Apr-25 01:31N 51°57' E 004°09'2 3.9
2017-Apr-25 00:55N 51°56' E 004°12'0 0.0
2017-Apr-25 00:28N 51°56' E 004°12'0 0.0
2017-Apr-24 23:58N 51°56' E 004°12'0 0.0
2017-Apr-24 23:25N 51°56' E 004°12'0 0.0
2017-Apr-24 22:58N 51°56' E 004°12'0 0.0
2017-Apr-24 22:28N 51°56' E 004°12'0 0.0
2017-Apr-24 21:58N 51°56' E 004°12'0 0.0
2017-Apr-24 21:28N 51°56' E 004°12'0 0.0
2017-Apr-24 20:55N 51°56' E 004°12'0 0.0
2017-Apr-24 20:28N 51°56' E 004°12'0 0.0
2017-Apr-24 19:55N 51°56' E 004°12'0 0.0
2017-Apr-24 19:28N 51°56' E 004°12'0 0.1
2017-Apr-24 18:58N 51°56' E 004°12'0 0.1
2017-Apr-24 18:25N 51°56' E 004°12'0 0.0
2017-Apr-24 17:55N 51°56' E 004°12'0 0.0
2017-Apr-24 17:28N 51°56' E 004°12'0 0.1
2017-Apr-24 16:58N 51°56' E 004°12'0 0.1
2017-Apr-24 16:28N 51°56' E 004°12'0 0.0
2017-Apr-24 15:58N 51°56' E 004°12'0 0.0
2017-Apr-24 15:28N 51°56' E 004°12'0 0.0
2017-Apr-24 14:58N 51°56' E 004°12'0 0.0
2017-Apr-24 14:25N 51°56' E 004°12'0 0.0
2017-Apr-24 13:25N 51°56' E 004°12'0 0.0
2017-Apr-24 12:58N 51°56' E 004°12'0 0.0
2017-Apr-24 12:28N 51°56' E 004°12'0 0.0
2017-Apr-24 11:58N 51°56' E 004°12'0 0.0
2017-Apr-24 11:25N 51°56' E 004°12'0 0.0
2017-Apr-24 10:58N 51°56' E 004°12'0 0.1
2017-Apr-24 10:28N 51°56' E 004°12'0 0.1
2017-Apr-24 09:52N 51°56' E 004°12'0 0.0
2017-Apr-24 09:28N 51°56' E 004°12'0 0.0
2017-Apr-24 08:58N 51°56' E 004°12'0 0.0
2017-Apr-24 08:28N 51°56' E 004°12'0 0.0
2017-Apr-24 07:58N 51°56' E 004°12'0 0.0
2017-Apr-24 07:28N 51°56' E 004°12'0 0.0
2017-Apr-24 06:58N 51°56' E 004°12'0 0.0
2017-Apr-24 06:22N 51°56' E 004°12'0 0.0
2017-Apr-24 05:58N 51°56' E 004°12'0 0.0
2017-Apr-24 05:28N 51°56' E 004°12'0 0.0
2017-Apr-24 04:55N 51°56' E 004°12'0 0.0
2017-Apr-24 04:28N 51°56' E 004°12'0 0.0
2017-Apr-24 03:58N 51°56' E 004°12'0 0.0
2017-Apr-24 03:28N 51°56' E 004°12'0 0.0
2017-Apr-24 02:58N 51°56' E 004°12'0 0.0
2017-Apr-24 02:28N 51°56' E 004°12'0 0.0
2017-Apr-24 01:58N 51°56' E 004°12'0 0.0
2017-Apr-24 01:28N 51°56' E 004°12'0 0.1
2017-Apr-24 01:00N 51°56' E 004°12'2 4.8
2017-Apr-24 00:31N 51°57' E 004°09'510.3
2017-Apr-24 00:01N 51°60' E 004°01'612.6
2017-Apr-23 23:30N 51°60' E 003°51'611.0
2017-Apr-23 23:00N 51°59' E 003°42'612.4
2017-Apr-23 22:30N 51°56' E 003°34'0 0.6
2017-Apr-23 21:44N 51°55' E 003°34'0 0.1
2017-Apr-23 20:50N 51°55' E 003°34'0 0.0
2017-Apr-23 20:23N 51°55' E 003°34'0 0.0
2017-Apr-23 19:59N 51°55' E 003°34'0 0.0
2017-Apr-23 18:23N 51°55' E 003°34'0 0.0
2017-Apr-23 16:53N 51°55' E 003°34'0 0.0
2017-Apr-23 16:29N 51°55' E 003°34'0 0.1
2017-Apr-23 15:35N 51°55' E 003°34'0 0.1
2017-Apr-23 14:14N 51°55' E 003°34'4712.3
2017-Apr-23 10:25N 51°37' E 002°25'613.6
2017-Apr-23 10:00N 51°32' E 002°19'713.3
2017-Apr-23 09:30N 51°27' E 002°13'713.4
2017-Apr-23 09:00N 51°20' E 002°09'713.4
2017-Apr-23 08:30N 51°15' E 002°04'713.3
2017-Apr-23 08:00N 51°11' E 001°56'713.1
2017-Apr-23 07:30N 51°07' E 001°47'613.0
2017-Apr-23 07:00N 51°02' E 001°40'612.5
2017-Apr-23 06:30N 50°58' E 001°33'611.8
2017-Apr-23 06:00N 50°53' E 001°28'611.6
2017-Apr-23 05:28N 50°47' E 001°24'4811.2
2017-Apr-23 01:13N 50°23' E 000°20'311.3
2017-Apr-23 00:55N 50°22' E 000°15'511.4
2017-Apr-23 00:30N 50°21' E 000°08'611.4
2017-Apr-23 00:00N 50°19' W 000°01'611.3
2017-Apr-22 23:30N 50°18' W 000°09'611.3
2017-Apr-22 23:00N 50°16' W 000°18'911.3
2017-Apr-22 22:11N 50°14' W 000°32'211.4
2017-Apr-22 22:00N 50°13' W 000°35'811.5
2017-Apr-22 21:18N 50°11' W 000°47'811.9
2017-Apr-22 20:37N 50°09' W 000°59'112.2
2017-Apr-22 20:30N 50°08' W 001°01'1412.9
2017-Apr-22 19:25N 50°04' W 001°22'713.9
2017-Apr-22 18:55N 50°02' W 001°33'3614.9
2017-Apr-22 16:30N 49°53' W 002°27'714.4
2017-Apr-22 16:00N 49°51' W 002°37'814.0
2017-Apr-22 15:28N 49°49' W 002°49'613.7
2017-Apr-22 15:00N 49°46' W 002°58'713.6
2017-Apr-22 14:30N 49°43' W 003°07'1413.4
2017-Apr-22 13:29N 49°36' W 003°25'4612.8
2017-Apr-22 09:53N 49°13' W 004°27'712.1
2017-Apr-22 09:18N 49°10' W 004°36'1311.8
2017-Apr-22 08:14N 49°03' W 004°53'711.6
2017-Apr-22 07:36N 48°60' W 005°02'111.6
2017-Apr-22 07:29N 48°59' W 005°04'611.6
2017-Apr-22 07:00N 48°56' W 005°11'611.5
2017-Apr-22 06:30N 48°53' W 005°19'611.4
2017-Apr-22 06:00N 48°50' W 005°26'611.5
2017-Apr-22 05:30N 48°48' W 005°34'611.1
2017-Apr-22 04:59N 48°43' W 005°39'611.6
2017-Apr-22 04:30N 48°38' W 005°42'510.2
2017-Apr-22 04:00N 48°33' W 005°41'712.3
2017-Apr-22 03:28N 48°28' W 005°34'612.2
2017-Apr-22 02:59N 48°24' W 005°28'612.3
2017-Apr-22 02:30N 48°19' W 005°22'612.4
2017-Apr-22 02:00N 48°15' W 005°15'612.7
2017-Apr-22 01:30N 48°14' W 005°06'612.7
2017-Apr-22 01:00N 48°14' W 004°57'612.8
2017-Apr-22 00:30N 48°16' W 004°48'612.9
2017-Apr-22 00:00N 48°19' W 004°39'510.9
2017-Apr-21 23:30N 48°21' W 004°31'4 6.9
2017-Apr-21 23:00N 48°23' W 004°27'0 0.0
2017-Apr-21 22:30N 48°23' W 004°27'0 0.0
2017-Apr-21 22:00N 48°23' W 004°27'0 0.0
2017-Apr-21 21:30N 48°23' W 004°27'0 0.0
2017-Apr-21 21:00N 48°23' W 004°27'0 0.0
2017-Apr-21 20:30N 48°23' W 004°27'0 0.0
2017-Apr-21 20:00N 48°23' W 004°27'0 0.0
2017-Apr-21 19:30N 48°23' W 004°27'0 0.0
2017-Apr-21 19:00N 48°23' W 004°27'0 0.0
2017-Apr-21 18:30N 48°23' W 004°27'0 0.0
2017-Apr-21 18:00N 48°23' W 004°27'0 0.0
2017-Apr-21 17:30N 48°23' W 004°27'0 0.0
2017-Apr-21 17:00N 48°23' W 004°27'0 0.0
2017-Apr-21 16:30N 48°23' W 004°27'0 0.0
2017-Apr-21 16:00N 48°23' W 004°27'0 0.0
2017-Apr-21 15:30N 48°23' W 004°27'0 0.0
2017-Apr-21 15:00N 48°23' W 004°27'0 0.0
2017-Apr-21 14:30N 48°23' W 004°27'0 0.0
2017-Apr-21 13:30N 48°23' W 004°27'0 0.0
2017-Apr-21 13:00N 48°23' W 004°27'0 0.0
2017-Apr-21 12:30N 48°23' W 004°27'0 0.0
2017-Apr-21 12:00N 48°23' W 004°27'0 0.0
2017-Apr-21 11:30N 48°23' W 004°27'0 0.0
2017-Apr-21 11:00N 48°23' W 004°27'0 0.0
2017-Apr-21 10:30N 48°23' W 004°27'0 0.0
2017-Apr-21 10:00N 48°23' W 004°27'0 0.0
2017-Apr-21 09:30N 48°23' W 004°27'1 1.7
2017-Apr-21 09:00N 48°22' W 004°28'5 9.7
2017-Apr-21 08:30N 48°21' W 004°35'510.8
2017-Apr-21 08:01N 48°18' W 004°42'611.0
2017-Apr-21 07:30N 48°16' W 004°49'5 9.2
2017-Apr-21 07:01N 48°14' W 004°56'0 0.4
2017-Apr-21 06:31N 48°14' W 004°56'1 2.8
2017-Apr-21 06:00N 48°15' W 004°54'0 0.7
2017-Apr-21 05:30N 48°15' W 004°54'0 0.2
2017-Apr-21 05:01N 48°15' W 004°54'3 6.0
2017-Apr-21 04:31N 48°14' W 004°58'510.8
2017-Apr-21 04:00N 48°13' W 005°06'611.0
2017-Apr-21 03:30N 48°13' W 005°14'510.6
2017-Apr-21 03:01N 48°14' W 005°22'611.2
2017-Apr-21 02:29N 48°18' W 005°28'37 9.2
2017-Apr-20 22:27N 48°53' W 005°47'10111.9
2017-Apr-20 13:56N 49°44' W 003°32'511.7
2017-Apr-20 13:30N 49°46' W 003°25'611.6
2017-Apr-20 13:01N 49°49' W 003°17'711.6
2017-Apr-20 12:25N 49°53' W 003°09'511.7
2017-Apr-20 12:01N 49°55' W 003°02'611.8
2017-Apr-20 11:30N 49°58' W 002°54'612.2
2017-Apr-20 11:00N 49°60' W 002°45'6713.1
2017-Apr-20 05:52N 49°45' W 001°03'513.4
2017-Apr-20 05:30N 49°43' W 000°56'713.0
2017-Apr-20 05:00N 49°41' W 000°46'612.2
2017-Apr-20 04:30N 49°38' W 000°38'612.2
2017-Apr-20 04:00N 49°36' W 000°29'611.7
2017-Apr-20 03:30N 49°34' W 000°21'611.8
2017-Apr-20 03:00N 49°31' W 000°13'612.2
2017-Apr-20 02:30N 49°29' W 000°04'611.6
2017-Apr-20 02:00N 49°26' E 000°04'510.9
2017-Apr-20 01:30N 49°26' E 000°12'4 8.5
2017-Apr-20 01:00N 49°26' E 000°19'4 8.6
2017-Apr-20 00:30N 49°27' E 000°25'4 8.8
2017-Apr-20 00:00N 49°29' E 000°31'5 9.6
2017-Apr-19 23:30N 49°26' E 000°38'7 9.3
2017-Apr-19 22:44N 49°31' E 000°46'311.0
2017-Apr-19 22:30N 49°29' E 000°48'510.6
2017-Apr-19 22:00N 49°24' E 000°51'3 0.2
2017-Apr-19 01:40N 49°26' E 000°48'210.8
2017-Apr-19 01:30N 49°28' E 000°49'6 6.4
2017-Apr-19 00:36N 49°29' E 000°40'112.8
2017-Apr-19 00:30N 49°27' E 000°40'5 9.5
2017-Apr-19 00:00N 49°28' E 000°33'5 9.3
2017-Apr-18 23:30N 49°27' E 000°25'612.5
2017-Apr-18 23:00N 49°26' E 000°16'510.8
2017-Apr-18 22:30N 49°26' E 000°08'510.4
2017-Apr-18 22:00N 49°28' E 000°00'4 8.5
2017-Apr-18 21:30N 49°29' W 000°06'4 8.7
2017-Apr-18 21:00N 49°30' W 000°12'510.2
2017-Apr-18 20:31N 49°32' W 000°19'510.8
2017-Apr-18 20:00N 49°36' W 000°26'611.4
2017-Apr-18 19:31N 49°41' W 000°29'611.4
2017-Apr-18 19:00N 49°46' W 000°33'612.6
2017-Apr-18 18:30N 49°52' W 000°29'612.8
2017-Apr-18 18:00N 49°58' W 000°25'713.0
2017-Apr-18 17:30N 50°04' W 000°21'712.9
2017-Apr-18 16:59N 50°10' W 000°16'612.8
2017-Apr-18 16:30N 50°15' W 000°12'612.6
2017-Apr-18 16:00N 50°21' W 000°07'612.5
2017-Apr-18 15:30N 50°27' W 000°03'612.0
2017-Apr-18 15:00N 50°29' E 000°05'612.1
2017-Apr-18 14:31N 50°31' E 000°14'1211.8
2017-Apr-18 13:30N 50°34' E 000°32'  

Dump ship's entire track history